Ana Sayfa
METAR-TAF:

METAR-TAF

Havaalanları :

Lüksemburg-Findel Havalimanı

Lüksemburg, Lüksemburg

Enlem: 49-37N, Boylam: 006-13E, yükseklik: 376 m

Güncel hava durumu gözlemi

Rapor saat 05:20 UTC de 42 dakika önce yapıldı.
Rüzgar kuzey/kuzeydoğudan 7 kt
Sıcaklık 0°C
Nem 55%
Basınç 1022 hPa
Görüş mesafesi 10 km veya daha fazla
1500 m altında bulut yok ve kümülonimbus yok

METAR: ELLX 010520Z 03007KT CAVOK M00/M08 Q1022 NOSIG

Saat: 08:02 (06:02 UTC)

Tahmin

Rapor saat 05:00 UTC de 1 saat ve 2 dakika önce yapıldı.
Ayın 01'si saat 06 UTC'den ayın 02'si saat 12 UTC'ye kadar geçerli Tahmin
Rüzgar kuzeydoğudan 8 kt
Görüş mesafesi 10 km veya daha fazla
1500 m altında bulut yok ve kümülonimbus yok

TAF: ELLX 010500Z 0106/0212 04008KT CAVOK

4.000'den fazla havaalanı için hava durumu gözlemleri ve tahminleri (METAR ve TAF raporları).

Kullanılabilir istasyonlar harita üzerinde sarı ve kırmızı noktalarla gösterilir.

İstasyonun adını görmek için fareyi noktanın üzerinde gezdirin.

Sonrasında hava gözlem ve tahminlerini görmek için tıklayın.

Haritayı değiştirmek için: yaklaştırmak için siyah artı işaretli yeşil düğmeye ve uzaklaştırmak için de eksi işaretli düğmeye hızla tıklayın; bitişik haritalar için yeşil okları kullanın.


METAR-TAF: